This is the latest recevied weather packets stored in our database for station/object KA0EGE. If no packets are shown the sender has not sent any weather packets the latest 10 day(s).
| Time | Temp. | Humidity | Pressure | Rain* | Wind** | Luminosity | Snow |
|---|---|---|---|---|---|---|---|
| 1777329792 | 26.11° C | 80% | 1020 hPa | 0 mm | - | 112 W/m² | - |
| 1777329490 | 25.56° C | 80% | 1019.7 hPa | 0 mm | - | 201 W/m² | - |
| 1777329187 | 26.11° C | 79% | 1019.8 hPa | 0 mm | - | 208 W/m² | - |
| 1777328884 | 26.11° C | 78% | 1019.6 hPa | 0 mm | - | 224 W/m² | - |
| 1777328583 | 26.67° C | 77% | 1019.6 hPa | 0 mm | - | 236 W/m² | - |
| 1777328280 | 26.67° C | 76% | 1019.5 hPa | 0 mm | - | 261 W/m² | - |
| 1777327978 | 26.67° C | 77% | 1019.3 hPa | 0 mm | - | 281 W/m² | - |
| 1777327676 | 26.67° C | 77% | 1019.3 hPa | 0 mm | - | 222 W/m² | - |
| 1777327373 | 27.22° C | 76% | 1019.4 hPa | 0 mm | - | 114 W/m² | - |
| 1777327070 | 27.78° C | 71% | 1019.1 hPa | 0 mm | - | 202 W/m² | - |
| 1777326767 | 27.78° C | 72% | 1019.1 hPa | 0 mm | - | 120 W/m² | - |
| 1777326464 | 28.33° C | 70% | 1019.2 hPa | 0 mm | - | 373 W/m² | - |
| 1777326162 | 28.89° C | 68% | 1019.1 hPa | 0 mm | - | 347 W/m² | - |
| 1777325860 | 28.89° C | 69% | 1018.9 hPa | 0 mm | - | 343 W/m² | - |
| 1777325558 | 27.78° C | 70% | 1019 hPa | 0 mm | - | 304 W/m² | - |
| 1777325255 | 27.78° C | 70% | 1019.1 hPa | 0 mm | - | 154 W/m² | - |
| 1777324952 | 28.33° C | 70% | 1018.8 hPa | 0 mm | - | 170 W/m² | - |
| 1777324649 | 28.33° C | 69% | 1018.7 hPa | 0 mm | - | 166 W/m² | - |
| 1777324347 | 28.89° C | 65% | 1018.8 hPa | 0 mm | - | 205 W/m² | - |
| 1777324044 | 28.89° C | 63% | 1018.8 hPa | 0 mm | - | 267 W/m² | - |
| 1777323742 | 28.33° C | 65% | 1019 hPa | 0 mm | - | 273 W/m² | - |
| 1777323438 | 28.33° C | 66% | 1018.8 hPa | 0 mm | - | 226 W/m² | - |
| 1777323136 | 28.89° C | 66% | 1018.9 hPa | 0 mm | - | 186 W/m² | - |
| 1777322834 | 29.44° C | 62% | 1019.1 hPa | 0 mm | - | 164 W/m² | - |
| 1777322532 | 30° C | 59% | 1018.9 hPa | 0 mm | - | 641 W/m² | - |
* Rain latest hour (hover to see other rain measurements)
** Current wind speed in m/s (hover to see current wind gust speed)